Time;durP1;ratioP1;P1;durP2;ratioP2;P2;SDS_P1;SDS_P2;PMS_P1;PMS_P2;Temp;Humidity;BMP_temperature;BMP_pressure;BME280_temperature;BME280_humidity;BME280_pressure;Samples;Min_cycle;Max_cycle;Signal;HPM_P1;HPM_P2
2021/10/20 00:01:39;;;;;;;29.15;19.05;;;;;;;8.67;88.12;101470.56;5046247;28;20037;-64
2021/10/20 00:04:05;;;;;;;31.70;18.88;;;;;;;8.71;87.53;101486.31;5045782;28;20024;-64
2021/10/20 00:06:31;;;;;;;28.92;19.25;;;;;;;8.73;87.20;101484.44;5048372;28;20040;-61
2021/10/20 00:08:57;;;;;;;29.08;18.40;;;;;;;8.65;86.96;101467.13;5051993;28;20459;-62
2021/10/20 00:11:22;;;;;;;28.15;18.63;;;;;;;8.73;86.80;101483.56;5052339;28;20029;-61
2021/10/20 00:13:49;;;;;;;31.17;18.10;;;;;;;8.73;86.61;101479.09;5051228;28;20131;-62
2021/10/20 00:16:15;;;;;;;34.75;19.70;;;;;;;8.72;86.39;101480.03;5031647;28;20025;-64
2021/10/20 00:18:47;;;;;;;30.80;19.08;;;;;;;8.72;86.24;101481.84;5028147;28;20025;-64
2021/10/20 00:21:14;;;;;;;32.90;19.25;;;;;;;8.70;86.33;101473.91;5029562;28;20036;-65
2021/10/20 00:23:40;;;;;;;30.27;18.40;;;;;;;8.71;86.28;101482.81;5028495;28;20033;-64
2021/10/20 00:26:05;;;;;;;30.00;18.58;;;;;;;8.67;86.86;101471.44;5029446;28;20033;-64
2021/10/20 00:28:30;;;;;;;27.77;18.77;;;;;;;8.67;86.68;101475.91;5029984;28;20033;-65
2021/10/20 00:30:56;;;;;;;31.20;19.38;;;;;;;8.66;86.58;101469.72;5038700;28;20451;-65
2021/10/20 00:33:21;;;;;;;30.08;21.08;;;;;;;8.63;86.87;101467.22;5049609;28;20601;-65
2021/10/20 00:35:47;;;;;;;34.85;20.30;;;;;;;8.65;86.97;101467.13;5049338;28;20047;-64
2021/10/20 00:38:12;;;;;;;28.70;18.58;;;;;;;8.65;87.18;101459.97;5048984;28;20044;-64
2021/10/20 00:40:38;;;;;;;30.77;19.67;;;;;;;8.62;87.58;101457.50;5050085;28;20043;-64
2021/10/20 00:43:03;;;;;;;30.17;17.90;;;;;;;8.62;87.56;101460.19;5049657;28;20593;-64
2021/10/20 00:45:30;;;;;;;36.22;20.08;;;;;;;8.57;87.92;101461.38;5049473;28;20049;-64
2021/10/20 00:47:56;;;;;;;28.95;18.13;;;;;;;8.62;87.93;101470.88;5049167;28;20040;-64
2021/10/20 00:50:21;;;;;;;31.35;19.17;;;;;;;8.59;88.03;101462.16;5049735;28;20025;-64
2021/10/20 00:52:47;;;;;;;31.50;19.23;;;;;;;8.50;87.88;101444.00;5044706;28;20033;-64
2021/10/20 00:55:14;;;;;;;30.67;19.00;;;;;;;8.56;87.85;101465.03;5027607;28;20025;-63
2021/10/20 00:57:40;;;;;;;32.95;20.67;;;;;;;8.49;88.28;101463.69;5029448;28;20484;-64
2021/10/20 01:00:08;;;;;;;30.40;19.85;;;;;;;8.52;88.22;101468.84;5028839;28;20017;-64
2021/10/20 01:02:37;;;;;;;28.92;19.40;;;;;;;8.49;88.27;101463.69;5029180;28;20036;-65
2021/10/20 01:05:05;;;;;;;32.65;19.85;;;;;;;8.43;87.86;101458.72;5029160;28;20107;-64
2021/10/20 01:07:30;;;;;;;32.50;19.65;;;;;;;8.43;88.45;101466.72;5029411;28;20041;-63
2021/10/20 01:09:56;;;;;;;31.67;20.55;;;;;;;8.37;88.60;101457.28;5028739;28;20025;-64
2021/10/20 01:12:22;;;;;;;32.95;20.17;;;;;;;8.35;87.97;101452.97;5028925;28;20025;-63
2021/10/20 01:14:47;;;;;;;28.20;19.10;;;;;;;8.33;88.20;101449.53;5028755;28;20060;-63
2021/10/20 01:17:14;;;;;;;30.05;20.33;;;;;;;8.30;88.51;101450.59;5028403;28;20068;-64
2021/10/20 01:19:43;;;;;;;37.78;22.13;;;;;;;8.28;88.71;101454.28;5028745;28;20029;-64
2021/10/20 01:22:09;;;;;;;35.60;21.67;;;;;;;8.27;89.20;101444.56;5032282;28;20017;-64
2021/10/20 01:24:34;;;;;;;36.05;20.88;;;;;;;8.24;89.13;101447.41;5048794;28;20032;-65
2021/10/20 01:27:01;;;;;;;37.45;21.70;;;;;;;8.24;89.29;101437.59;5048405;28;20044;-65
2021/10/20 01:29:27;;;;;;;30.92;20.23;;;;;;;8.18;89.59;101429.03;5041457;28;20035;-65
2021/10/20 01:31:55;;;;;;;32.65;21.40;;;;;;;8.20;90.27;101440.50;5047624;28;20542;-65
2021/10/20 01:34:21;;;;;;;36.13;21.40;;;;;;;8.20;90.72;101445.84;5048384;28;20036;-64
2021/10/20 01:36:48;;;;;;;36.72;21.63;;;;;;;8.20;90.60;101451.19;5037749;28;20029;-64
2021/10/20 01:39:15;;;;;;;33.05;21.73;;;;;;;8.20;91.31;101440.50;5027976;28;20104;-65
2021/10/20 01:41:41;;;;;;;36.00;20.98;;;;;;;8.14;90.96;101435.53;5028471;28;20048;-64
2021/10/20 01:44:07;;;;;;;39.55;22.98;;;;;;;8.12;90.45;101432.94;5024068;28;20025;-65
2021/10/20 01:46:32;;;;;;;31.85;21.30;;;;;;;8.19;90.72;101444.13;5033489;28;20127;-65
2021/10/20 01:48:58;;;;;;;39.92;21.90;;;;;;;8.10;90.41;101428.66;5018383;28;20184;-65
2021/10/20 01:51:24;;;;;;;33.95;21.70;;;;;;;8.16;91.11;101437.13;5030879;28;20729;-65
2021/10/20 01:53:49;;;;;;;35.65;21.60;;;;;;;8.13;90.94;101440.00;5030194;28;20040;-69
2021/10/20 01:56:16;;;;;;;33.33;21.77;;;;;;;8.12;90.72;101437.41;5027114;28;20395;-68
2021/10/20 01:58:42;;;;;;;41.97;23.75;;;;;;;8.06;91.19;101433.28;5033947;28;20026;-68
2021/10/20 02:01:08;;;;;;;38.83;24.30;;;;;;;8.08;91.23;101433.22;5031345;28;20041;-69
2021/10/20 02:03:38;;;;;;;37.42;22.58;;;;;;;8.07;90.90;101435.03;5022904;28;20480;-69
2021/10/20 02:06:06;;;;;;;35.95;23.10;;;;;;;8.03;90.70;101440.66;5025642;28;20031;-69
2021/10/20 02:08:31;;;;;;;39.38;23.48;;;;;;;8.00;90.63;101440.84;5019632;28;20069;-68
2021/10/20 02:10:57;;;;;;;36.35;23.30;;;;;;;7.92;90.46;101432.41;5026229;28;20061;-68
2021/10/20 02:13:22;;;;;;;38.78;23.38;;;;;;;7.92;89.45;101437.75;5029270;28;20124;-69
2021/10/20 02:15:48;;;;;;;35.50;22.65;;;;;;;7.87;89.69;101439.84;5029271;28;20459;-67
2021/10/20 02:18:14;;;;;;;35.72;22.70;;;;;;;7.77;89.20;101423.47;5030009;28;20025;-70
2021/10/20 02:20:39;;;;;;;36.45;21.65;;;;;;;7.74;89.61;101431.66;5027419;28;20025;-68
2021/10/20 02:23:04;;;;;;;37.50;23.13;;;;;;;7.67;89.83;101424.13;5030818;28;20025;-70
2021/10/20 02:25:30;;;;;;;32.08;21.92;;;;;;;7.62;90.40;101427.06;5045905;28;20492;-70
2021/10/20 02:27:55;;;;;;;35.75;22.45;;;;;;;7.56;90.66;101422.06;5048096;28;20112;-69
2021/10/20 02:30:21;;;;;;;33.92;21.35;;;;;;;7.47;90.38;101422.59;5046752;28;20025;-69
2021/10/20 02:32:48;;;;;;;36.00;22.13;;;;;;;7.43;90.20;101417.53;5045930;28;20052;-69
2021/10/20 02:35:14;;;;;;;34.40;21.60;;;;;;;7.39;90.00;101421.31;5045222;28;20375;-69
2021/10/20 02:37:40;;;;;;;32.78;21.73;;;;;;;7.34;90.12;101423.38;5046928;28;20107;-69
2021/10/20 02:40:07;;;;;;;33.15;21.33;;;;;;;7.30;90.51;101428.06;5047824;28;20064;-70
2021/10/20 02:42:33;;;;;;;35.10;22.58;;;;;;;7.28;90.56;101426.44;5048105;28;20079;-67
2021/10/20 02:44:59;;;;;;;38.90;23.40;;;;;;;7.17;90.06;101410.13;5048286;28;20481;-69
2021/10/20 02:47:24;;;;;;;39.60;23.05;;;;;;;7.16;89.51;101414.59;5048735;28;20060;-69
2021/10/20 02:49:50;;;;;;;51.08;27.65;;;;;;;7.16;89.68;101416.44;5047963;28;20029;-68
2021/10/20 02:52:15;;;;;;;52.72;29.15;;;;;;;7.09;90.39;101410.56;5031074;28;20025;-69
2021/10/20 02:54:41;;;;;;;58.83;31.02;;;;;;;7.03;90.48;101400.25;5031041;28;20037;-69
2021/10/20 02:57:07;;;;;;;54.83;30.35;;;;;;;7.00;90.60;101405.78;5038707;28;20021;-69
2021/10/20 02:59:32;;;;;;;60.38;31.42;;;;;;;6.98;90.75;101411.19;5028065;28;20534;-69
2021/10/20 03:01:58;;;;;;;54.00;31.05;;;;;;;6.94;91.82;101412.28;5043655;28;20029;-69
2021/10/20 03:04:23;;;;;;;51.75;30.05;;;;;;;6.95;92.09;101419.34;5048252;28;20043;-69
2021/10/20 03:06:49;;;;;;;53.53;30.40;;;;;;;6.84;91.98;101399.56;5034145;28;20025;-69
2021/10/20 03:09:14;;;;;;;48.83;28.05;;;;;;;6.79;91.83;101394.47;5026914;28;20379;-68
2021/10/20 03:11:40;;;;;;;46.97;27.77;;;;;;;6.88;92.22;101419.78;5027259;28;20037;-69
2021/10/20 03:14:05;;;;;;;50.72;27.50;;;;;;;6.86;92.26;101403.84;5030853;28;20109;-68
2021/10/20 03:16:31;;;;;;;44.33;25.85;;;;;;;6.87;92.99;101410.91;5032163;28;20302;-69
2021/10/20 03:18:56;;;;;;;46.55;26.80;;;;;;;6.86;92.95;101406.53;5037955;28;20044;-69
2021/10/20 03:21:22;;;;;;;43.60;26.83;;;;;;;6.88;94.04;101409.97;5029505;28;20053;-70
2021/10/20 03:23:48;;;;;;;46.88;27.30;;;;;;;6.83;94.65;101392.50;5022804;28;20487;-70
2021/10/20 03:26:13;;;;;;;47.13;27.27;;;;;;;6.95;95.27;101402.50;5025748;28;20029;-70
2021/10/20 03:28:39;;;;;;;42.33;26.23;;;;;;;6.98;95.95;101399.66;5037932;28;20073;-70
2021/10/20 03:31:04;;;;;;;42.03;26.55;;;;;;;7.00;95.67;101401.28;5032753;28;20020;-70
2021/10/20 03:33:30;;;;;;;48.83;29.35;;;;;;;7.06;96.40;101407.22;5041651;28;20119;-69
2021/10/20 03:35:55;;;;;;;45.40;26.73;;;;;;;7.03;96.37;101384.22;5036659;28;20025;-69
2021/10/20 03:38:21;;;;;;;50.15;28.48;;;;;;;7.12;96.33;101394.38;5030723;28;20021;-70
2021/10/20 03:40:46;;;;;;;49.53;29.23;;;;;;;7.17;96.27;101391.47;5041518;28;20033;-70
2021/10/20 03:43:12;;;;;;;46.95;27.48;;;;;;;7.22;95.95;101389.41;5036927;28;20045;-69
2021/10/20 03:45:37;;;;;;;45.45;27.17;;;;;;;7.23;95.68;101380.44;5031464;28;20080;-69
2021/10/20 03:48:03;;;;;;;50.00;29.08;;;;;;;7.29;95.98;101385.44;5032991;28;20052;-70
2021/10/20 03:50:29;;;;;;;52.72;30.98;;;;;;;7.34;95.35;101383.34;5027011;28;20037;-70
2021/10/20 03:52:55;;;;;;;53.28;30.48;;;;;;;7.39;95.44;101387.50;5042827;28;20029;-70
2021/10/20 03:55:20;;;;;;;48.20;29.63;;;;;;;7.38;95.47;101369.75;5043929;28;20045;-69
2021/10/20 03:57:45;;;;;;;48.92;30.00;;;;;;;7.42;94.97;101375.78;5026956;28;20036;-69
2021/10/20 04:00:14;;;;;;;48.95;30.77;;;;;;;7.44;94.64;101363.19;5036660;28;20466;-69
2021/10/20 04:02:44;;;;;;;46.22;30.08;;;;;;;7.50;94.17;101377.03;5045672;28;20491;-69
2021/10/20 04:05:17;;;;;;;48.92;30.67;;;;;;;7.54;94.15;101370.56;5044919;28;20501;-70
2021/10/20 04:07:45;;;;;;;49.75;29.50;;;;;;;7.56;93.77;101366.03;5039975;28;20029;-69
2021/10/20 04:10:16;;;;;;;50.80;30.65;;;;;;;7.55;93.74;101356.28;5036527;28;20017;-69
2021/10/20 04:12:42;;;;;;;48.45;29.95;;;;;;;7.55;93.26;101355.44;5037465;28;20402;-69
2021/10/20 04:15:09;;;;;;;52.63;30.38;;;;;;;7.49;92.52;101343.31;5035414;28;20546;-69
2021/10/20 04:17:35;;;;;;;49.70;30.27;;;;;;;7.60;92.73;101361.34;5025073;28;20033;-70
2021/10/20 04:20:00;;;;;;;46.67;29.23;;;;;;;7.50;92.71;101342.34;5026101;28;20083;-69
2021/10/20 04:22:26;;;;;;;46.50;29.15;;;;;;;7.57;92.75;101358.84;5034015;28;20033;-69
2021/10/20 04:24:51;;;;;;;51.10;32.10;;;;;;;7.56;92.90;101359.81;5046011;28;20025;-69
2021/10/20 04:27:17;;;;;;;49.92;31.20;;;;;;;7.56;92.61;101357.13;5044477;28;20033;-70
2021/10/20 04:29:42;;;;;;;53.33;32.97;;;;;;;7.50;92.50;101347.69;5033030;28;20380;-69
2021/10/20 04:32:08;;;;;;;53.42;31.55;;;;;;;7.46;92.25;101353.28;5028860;28;20064;-68
2021/10/20 04:34:33;;;;;;;53.30;32.30;;;;;;;7.54;92.40;101375.06;5026398;28;20130;-69
2021/10/20 04:36:59;;;;;;;56.17;32.65;;;;;;;7.52;92.47;101369.81;5024543;28;20553;-68
2021/10/20 04:39:24;;;;;;;49.58;31.58;;;;;;;7.53;92.51;101365.31;5039851;28;20525;-69
2021/10/20 04:41:50;;;;;;;56.35;34.08;;;;;;;7.54;92.60;101370.56;5046394;28;20027;-68
2021/10/20 04:44:16;;;;;;;57.33;35.63;;;;;;;7.48;92.77;101356.75;5042839;28;20029;-69
2021/10/20 04:46:41;;;;;;;54.78;32.78;;;;;;;7.54;93.09;101373.25;5037031;28;20025;-69
2021/10/20 04:49:07;;;;;;;53.22;32.58;;;;;;;7.55;92.66;101385.66;5026585;28;20034;-70
2021/10/20 04:51:32;;;;;;;54.50;33.45;;;;;;;7.52;92.81;101371.63;5032208;28;20044;-68
2021/10/20 04:53:58;;;;;;;56.55;33.83;;;;;;;7.56;93.38;101384.69;5039987;28;20076;-69
2021/10/20 04:56:23;;;;;;;51.53;31.83;;;;;;;7.58;93.63;101376.59;5036179;28;20028;-69
2021/10/20 04:58:49;;;;;;;53.10;32.03;;;;;;;7.53;93.43;101363.53;5023706;28;20013;-69
2021/10/20 05:01:14;;;;;;;57.08;32.75;;;;;;;7.56;93.28;101363.34;5026102;28;20121;-70
2021/10/20 05:03:40;;;;;;;52.13;32.22;;;;;;;7.59;93.52;101346.28;5024328;28;20060;-68
2021/10/20 05:06:05;;;;;;;58.40;32.97;;;;;;;7.61;93.84;101339.06;5028228;28;20029;-68
2021/10/20 05:08:31;;;;;;;55.78;33.25;;;;;;;7.68;93.88;101353.75;5028172;28;20048;-69
2021/10/20 05:10:57;;;;;;;54.65;32.88;;;;;;;7.71;93.69;101342.88;5036021;28;20025;-69
2021/10/20 05:13:23;;;;;;;63.67;34.42;;;;;;;7.76;93.59;101363.03;5031625;28;20120;-69
2021/10/20 05:15:49;;;;;;;51.47;32.13;;;;;;;7.76;93.78;101344.31;5029051;28;20140;-70
2021/10/20 05:18:15;;;;;;;52.63;32.47;;;;;;;7.78;93.61;101344.25;5034567;28;20040;-70
2021/10/20 05:20:40;;;;;;;55.70;32.20;;;;;;;7.80;93.25;101339.69;5045818;28;20028;-69
2021/10/20 05:23:06;;;;;;;53.35;32.08;;;;;;;7.83;92.72;101342.16;5029276;28;20121;-69
2021/10/20 05:25:31;;;;;;;59.38;33.30;;;;;;;7.85;92.77;101345.59;5030455;28;20064;-69
2021/10/20 05:27:57;;;;;;;56.95;32.10;;;;;;;7.89;92.49;101333.75;5041113;28;20048;-69
2021/10/20 05:30:22;;;;;;;56.33;33.10;;;;;;;7.91;92.78;101332.72;5030410;28;20029;-68
2021/10/20 05:32:48;;;;;;;52.95;33.75;;;;;;;7.94;92.29;101331.69;5043335;28;20024;-69
2021/10/20 05:35:20;;;;;;;56.63;33.00;;;;;;;7.96;91.89;101337.78;5050988;28;20028;-69
2021/10/20 05:37:47;;;;;;;53.95;32.35;;;;;;;7.95;92.39;101331.59;5060572;28;20017;-69
2021/10/20 05:40:13;;;;;;;53.40;31.45;;;;;;;8.04;92.15;101328.34;5050326;28;20048;-69
2021/10/20 05:42:39;;;;;;;56.70;34.33;;;;;;;8.08;92.33;101329.00;5060833;28;20036;-70
2021/10/20 05:45:04;;;;;;;56.67;32.97;;;;;;;8.12;91.90;101319.84;5063999;28;20053;-69
2021/10/20 05:47:30;;;;;;;56.72;33.58;;;;;;;8.16;92.03;101326.75;5056965;28;20041;-70
2021/10/20 05:49:55;;;;;;;50.85;32.17;;;;;;;8.21;91.50;101330.84;5060532;28;20024;-70
2021/10/20 05:52:21;;;;;;;52.63;32.92;;;;;;;8.25;91.55;101332.41;5057763;28;20017;-69
2021/10/20 05:54:46;;;;;;;55.58;33.88;;;;;;;8.30;91.25;101324.97;5050822;28;20021;-69
2021/10/20 05:57:12;;;;;;;51.08;31.33;;;;;;;8.37;91.33;101312.06;5030357;28;20025;-68
2021/10/20 05:59:37;;;;;;;58.35;34.83;;;;;;;8.41;91.03;101302.88;5046141;28;20037;-68
2021/10/20 06:02:03;;;;;;;54.58;32.00;;;;;;;8.52;91.02;101305.75;5033987;28;20026;-69
2021/10/20 06:04:28;;;;;;;56.55;33.90;;;;;;;8.56;91.06;101294.78;5028601;28;20040;-68
2021/10/20 06:06:54;;;;;;;50.25;31.55;;;;;;;8.56;90.86;101284.06;5037481;28;20082;-68
2021/10/20 06:09:19;;;;;;;55.17;31.25;;;;;;;8.61;90.55;101270.41;5028285;28;20438;-69
2021/10/20 06:11:45;;;;;;;54.95;32.42;;;;;;;8.78;90.19;101294.25;5042125;28;20036;-69
2021/10/20 06:14:10;;;;;;;63.60;35.42;;;;;;;8.86;90.00;101292.78;5048653;28;20033;-70
2021/10/20 06:16:36;;;;;;;59.60;37.08;;;;;;;8.90;89.47;101298.81;5044853;28;20491;-68
2021/10/20 06:19:05;;;;;;;65.43;38.13;;;;;;;9.04;88.76;101299.63;5030343;28;20091;-68
2021/10/20 06:21:31;;;;;;;59.90;37.60;;;;;;;9.08;88.48;101294.91;5038895;28;20044;-69
2021/10/20 06:23:57;;;;;;;60.88;37.47;;;;;;;9.11;88.10;101294.69;5049862;28;20036;-69
2021/10/20 06:26:23;;;;;;;56.42;36.58;;;;;;;9.14;88.15;101283.78;5049386;28;20474;-68
2021/10/20 06:28:49;;;;;;;56.75;34.53;;;;;;;9.17;87.89;101284.47;5043105;28;20021;-68
2021/10/20 06:31:14;;;;;;;53.85;32.65;;;;;;;9.23;87.73;101294.72;5047384;28;20025;-69
2021/10/20 06:33:41;;;;;;;50.85;33.45;;;;;;;9.27;87.55;101309.66;5050251;28;20025;-71
2021/10/20 06:36:07;;;;;;;48.28;31.90;;;;;;;9.26;87.82;101293.69;5049766;28;20043;-70
2021/10/20 06:38:32;;;;;;;51.00;33.90;;;;;;;9.47;86.61;101315.47;5049322;28;20025;-70
2021/10/20 06:40:58;;;;;;;53.28;33.08;;;;;;;9.51;86.54;101317.00;5049405;28;20025;-71
2021/10/20 06:43:23;;;;;;;57.67;33.13;;;;;;;9.50;86.74;101308.09;5042529;28;20052;-68
2021/10/20 06:45:49;;;;;;;55.03;33.75;;;;;;;9.61;86.36;101318.91;5029142;28;20104;-69
2021/10/20 06:48:15;;;;;;;54.25;32.72;;;;;;;9.67;86.11;101325.72;5046466;28;20108;-68
2021/10/20 06:50:40;;;;;;;56.97;34.88;;;;;;;9.75;86.34;101334.94;5048527;28;20112;-69
2021/10/20 06:53:06;;;;;;;54.83;34.78;;;;;;;9.83;86.43;101334.41;5047711;28;20036;-69
2021/10/20 06:55:31;;;;;;;56.47;34.20;;;;;;;9.90;85.80;101336.53;5048463;28;20039;-69
2021/10/20 06:57:57;;;;;;;57.50;36.10;;;;;;;9.93;85.74;101325.63;5039229;28;20022;-68
2021/10/20 07:00:22;;;;;;;57.60;35.33;;;;;;;10.08;85.37;101346.03;5039060;28;20024;-69
2021/10/20 07:02:48;;;;;;;57.92;34.95;;;;;;;10.14;85.61;101336.69;5037924;28;20056;-70
2021/10/20 07:05:13;;;;;;;57.20;34.15;;;;;;;10.19;85.69;101332.72;5045762;28;20463;-69
2021/10/20 07:07:39;;;;;;;54.10;34.05;;;;;;;10.24;84.97;101330.59;5047131;28;20035;-70
2021/10/20 07:10:05;;;;;;;54.55;33.88;;;;;;;10.35;85.27;101330.69;5047172;28;20043;-69
2021/10/20 07:12:34;;;;;;;56.45;34.58;;;;;;;10.42;84.44;101333.81;5025282;28;20041;-70
2021/10/20 07:14:59;;;;;;;56.85;36.00;;;;;;;10.52;84.27;101333.06;5030895;28;20024;-70
2021/10/20 07:17:25;;;;;;;60.30;36.83;;;;;;;10.62;83.39;101339.47;5027594;28;20037;-70
2021/10/20 07:19:51;;;;;;;57.95;36.10;;;;;;;10.64;82.98;101324.09;5027012;28;21058;-69
2021/10/20 07:22:16;;;;;;;53.03;36.42;;;;;;;10.74;82.37;101324.31;5040383;28;20033;-69
2021/10/20 07:24:42;;;;;;;61.83;38.05;;;;;;;10.87;82.60;101330.50;5027172;28;20140;-68
2021/10/20 07:27:08;;;;;;;59.40;39.50;;;;;;;10.99;81.98;101324.22;5045273;28;20035;-69
2021/10/20 07:29:33;;;;;;;54.60;35.88;;;;;;;11.05;81.15;101321.06;5037827;28;20113;-69
2021/10/20 07:32:00;;;;;;;61.83;37.05;;;;;;;11.17;80.62;101329.09;5033471;28;20387;-70
2021/10/20 07:34:25;;;;;;;64.70;37.30;;;;;;;11.30;80.34;101320.97;5036332;28;20040;-70
2021/10/20 07:36:51;;;;;;;58.60;38.15;;;;;;;11.40;80.00;101324.69;5047056;28;20021;-70
2021/10/20 07:39:16;;;;;;;58.65;38.45;;;;;;;11.53;79.12;101326.34;5045184;28;20017;-70
2021/10/20 07:41:42;;;;;;;58.30;37.20;;;;;;;11.71;78.84;101328.63;5039266;28;20033;-68
2021/10/20 07:44:08;;;;;;;53.92;36.78;;;;;;;11.90;78.14;101326.25;5046230;28;20120;-69
2021/10/20 07:46:34;;;;;;;57.80;36.60;;;;;;;12.16;76.60;101328.59;5047081;28;20043;-70
2021/10/20 07:48:59;;;;;;;59.30;38.65;;;;;;;12.45;75.22;101324.47;5046235;28;20021;-69
2021/10/20 07:51:25;;;;;;;54.42;36.83;;;;;;;12.71;73.29;101323.22;5046093;28;20025;-69
2021/10/20 07:53:50;;;;;;;53.70;37.72;;;;;;;12.91;71.56;101330.56;5046638;28;20090;-68
2021/10/20 07:56:16;;;;;;;55.00;38.28;;;;;;;13.02;70.08;101332.38;5045969;28;20060;-69
2021/10/20 07:58:41;;;;;;;52.22;34.97;;;;;;;13.05;70.10;101321.38;5046348;28;20515;-69
2021/10/20 08:01:07;;;;;;;53.65;36.72;;;;;;;13.11;69.94;101329.81;5046146;28;20517;-70
2021/10/20 08:03:33;;;;;;;50.53;34.38;;;;;;;13.12;69.56;101325.25;5035956;28;20049;-70
2021/10/20 08:05:58;;;;;;;51.80;35.80;;;;;;;13.03;69.72;101308.03;5026269;28;20026;-69
2021/10/20 08:08:23;;;;;;;49.88;34.58;;;;;;;13.09;69.65;101329.06;5025849;28;20024;-69
2021/10/20 08:10:49;;;;;;;49.58;34.17;;;;;;;13.04;69.45;101325.91;5026904;28;20025;-69
2021/10/20 08:13:14;;;;;;;52.17;34.15;;;;;;;13.01;70.15;101314.53;5024690;28;20025;-69
2021/10/20 08:15:42;;;;;;;47.65;33.83;;;;;;;12.93;70.57;101308.91;5022217;28;20025;-69
2021/10/20 08:18:08;;;;;;;47.83;32.10;;;;;;;12.91;71.26;101308.16;5042560;28;20596;-69
2021/10/20 08:20:34;;;;;;;49.30;31.50;;;;;;;12.88;71.40;101300.31;5040188;28;20029;-68
2021/10/20 08:23:02;;;;;;;46.13;30.73;;;;;;;12.88;71.03;101292.25;5031304;28;20564;-69
2021/10/20 08:25:28;;;;;;;44.72;30.33;;;;;;;12.89;71.24;101302.03;5034553;28;20403;-70
2021/10/20 08:27:54;;;;;;;42.28;30.73;;;;;;;12.89;71.71;101300.22;5029080;28;20428;-70
2021/10/20 08:30:20;;;;;;;47.13;31.35;;;;;;;12.90;72.00;101301.06;5029656;28;20108;-70
2021/10/20 08:32:50;;;;;;;42.50;29.88;;;;;;;12.92;72.04;101301.78;5032982;28;20475;-68
2021/10/20 08:35:16;;;;;;;42.30;29.52;;;;;;;12.92;71.89;101301.78;5049438;28;20138;-68
2021/10/20 08:37:47;;;;;;;42.30;30.17;;;;;;;12.96;71.90;101304.09;5039967;28;20095;-70
2021/10/20 08:40:13;;;;;;;40.95;29.13;;;;;;;12.91;71.82;101292.00;5030336;28;20494;-70
2021/10/20 08:42:40;;;;;;;41.05;27.63;;;;;;;13.02;71.41;101300.94;5046108;28;20037;-69
2021/10/20 08:45:08;;;;;;;44.60;29.17;;;;;;;13.08;71.29;101300.44;5048082;28;20138;-68
2021/10/20 08:47:35;;;;;;;37.80;26.27;;;;;;;13.11;70.77;101292.09;5050756;28;20036;-69
2021/10/20 08:50:06;;;;;;;34.42;25.90;;;;;;;13.18;71.23;101287.91;5040941;28;20025;-69
2021/10/20 08:52:33;;;;;;;35.95;26.80;;;;;;;13.23;70.57;101279.47;5050233;28;20032;-69
2021/10/20 08:55:00;;;;;;;38.33;26.42;;;;;;;13.26;70.05;101266.56;5040032;28;20036;-70
2021/10/20 08:57:25;;;;;;;36.00;26.63;;;;;;;13.29;70.06;101249.31;5034573;28;20047;-69
2021/10/20 08:59:51;;;;;;;34.22;25.73;;;;;;;13.47;70.15;101261.22;5036183;28;20021;-69
2021/10/20 09:02:21;;;;;;;45.08;28.13;;;;;;;13.58;70.25;101261.16;5038668;28;20040;-68
2021/10/20 09:04:52;;;;;;;38.95;27.45;;;;;;;13.77;69.45;101255.03;5028654;28;20036;-69
2021/10/20 09:07:17;;;;;;;41.88;27.83;;;;;;;13.90;68.29;101240.38;5029358;28;20060;-69
2021/10/20 09:09:42;;;;;;;37.38;26.30;;;;;;;14.14;67.56;101238.22;5031781;28;20034;-68
2021/10/20 09:12:08;;;;;;;35.50;26.50;;;;;;;14.39;66.27;101231.53;5047085;28;20035;-69
2021/10/20 09:14:34;;;;;;;36.22;26.10;;;;;;;14.70;65.42;101231.34;5031022;28;20039;-69
2021/10/20 09:17:03;;;;;;;39.65;24.67;;;;;;;15.18;63.50;101229.56;5029381;28;20036;-69
2021/10/20 09:19:33;;;;;;;33.00;22.38;;;;;;;16.15;60.90;101226.56;5029315;28;20033;-69
2021/10/20 09:22:03;;;;;;;36.72;22.73;;;;;;;17.91;55.21;101209.47;5029372;28;20130;-70
2021/10/20 09:24:37;;;;;;;31.48;21.55;;;;;;;19.92;49.51;101194.50;5029041;28;20048;-70
2021/10/20 09:27:04;;;;;;;;;;;;;;;21.90;43.64;101197.25;5029490;28;20021;-69
2021/10/20 09:29:33;;;;;;;25.30;19.73;;;;;;;23.60;40.48;101199.44;5046874;28;19927;-63
2021/10/20 09:31:59;;;;;;;26.65;19.80;;;;;;;25.13;37.01;101192.53;5048526;28;20020;-63
2021/10/20 09:34:38;;;;;;;27.08;19.23;;;;;;;26.55;34.30;101173.47;5048322;28;20051;-63
2021/10/20 09:37:05;;;;;;;23.05;18.67;;;;;;;27.64;32.61;101158.41;5048114;28;20079;-64
2021/10/20 09:39:31;;;;;;;20.83;17.90;;;;;;;28.61;31.00;101159.34;5047072;28;20036;-64
2021/10/20 09:42:11;;;;;;;21.98;18.70;;;;;;;29.01;29.89;101154.97;5048768;28;20108;-64
2021/10/20 09:44:51;;;;;;;23.42;17.92;;;;;;;29.55;29.07;101156.69;5048333;28;20049;-64
2021/10/20 09:47:17;;;;;;;22.55;17.45;;;;;;;30.10;28.45;101158.06;5047622;28;20123;-65
2021/10/20 09:49:54;;;;;;;21.58;18.00;;;;;;;30.54;27.86;101157.44;5046607;28;20345;-64
2021/10/20 09:52:24;;;;;;;19.23;17.17;;;;;;;31.08;27.14;101145.81;5047553;28;20024;-63
2021/10/20 09:54:50;;;;;;;22.27;16.85;;;;;;;31.33;26.72;101142.72;5047972;28;20105;-64
2021/10/20 09:57:16;;;;;;;18.95;16.95;;;;;;;31.22;26.44;101141.66;5047482;28;20067;-64
2021/10/20 09:59:43;;;;;;;21.30;17.10;;;;;;;30.23;27.51;101141.25;5048013;28;20032;-63
2021/10/20 10:02:10;;;;;;;19.00;16.55;;;;;;;29.53;28.43;101145.06;5046185;28;20044;-65
2021/10/20 10:04:40;;;;;;;20.08;17.52;;;;;;;28.83;29.50;101145.88;5037418;28;20048;-62
2021/10/20 10:07:07;;;;;;;18.00;16.10;;;;;;;27.63;30.93;101132.75;5027690;28;20033;-64
2021/10/20 10:09:32;;;;;;;21.27;16.50;;;;;;;26.38;32.83;101151.06;5027741;28;20033;-63
2021/10/20 10:12:14;;;;;;;18.90;16.90;;;;;;;25.30;34.35;101151.78;5028167;28;20136;-63
2021/10/20 10:14:53;;;;;;;19.92;16.58;;;;;;;24.11;36.34;101129.63;5027693;28;20183;-63
2021/10/20 10:17:19;;;;;;;19.95;15.52;;;;;;;23.42;37.97;101136.06;5027385;28;20560;-63
2021/10/20 10:19:45;;;;;;;19.02;16.15;;;;;;;22.80;39.24;101168.69;5026241;28;20040;-64
2021/10/20 10:22:21;;;;;;;22.10;17.20;;;;;;;22.17;40.35;101157.53;5027250;28;20029;-63
2021/10/20 10:24:47;;;;;;;20.13;16.23;;;;;;;21.52;41.65;101143.69;5027656;28;20387;-63
2021/10/20 10:27:12;;;;;;;20.25;14.98;;;;;;;21.11;42.93;101146.94;5027039;28;20035;-62
2021/10/20 10:29:54;;;;;;;18.92;15.43;;;;;;;20.70;43.79;101140.88;5027658;28;20071;-63
2021/10/20 10:32:22;;;;;;;21.02;15.10;;;;;;;20.36;44.81;101140.41;5027645;28;20028;-63
2021/10/20 10:34:49;;;;;;;20.65;15.70;;;;;;;20.05;46.03;101131.28;5027518;28;20037;-64
2021/10/20 10:37:26;;;;;;;19.10;16.08;;;;;;;19.80;46.75;101127.78;5027139;28;20024;-63
2021/10/20 10:39:52;;;;;;;19.52;16.10;;;;;;;19.63;46.82;101134.31;5027508;28;20559;-64
2021/10/20 10:42:17;;;;;;;20.88;16.02;;;;;;;19.43;47.53;101135.72;5027161;28;20034;-64
2021/10/20 10:44:51;;;;;;;20.63;16.23;;;;;;;19.30;47.71;101137.22;5023828;28;20076;-64
2021/10/20 10:47:27;;;;;;;19.10;15.68;;;;;;;19.13;48.29;101128.22;5017465;28;20557;-63
2021/10/20 10:49:54;;;;;;;26.55;16.85;;;;;;;18.96;48.72;101131.09;5025568;28;20024;-63
2021/10/20 10:52:30;;;;;;;18.25;15.73;;;;;;;18.82;49.04;101123.59;5021342;28;20454;-64
2021/10/20 10:54:58;;;;;;;20.50;15.90;;;;;;;18.65;49.50;101106.41;5025677;28;20379;-63
2021/10/20 10:57:36;;;;;;;17.90;15.57;;;;;;;18.52;49.70;101095.19;5025510;28;20079;-62
2021/10/20 11:00:18;;;;;;;20.80;15.95;;;;;;;18.42;50.06;101107.22;5027629;28;20052;-63
2021/10/20 11:02:57;;;;;;;21.73;15.00;;;;;;;18.36;50.55;101110.53;5027152;28;20449;-64
2021/10/20 11:05:30;;;;;;;23.05;16.27;;;;;;;18.27;51.11;101101.53;5026605;28;20033;-64
2021/10/20 11:08:01;;;;;;;19.77;16.17;;;;;;;18.19;51.50;101100.66;5027391;28;20083;-62
2021/10/20 11:10:28;;;;;;;21.90;15.98;;;;;;;18.13;51.32;101095.88;5026655;28;20056;-63
2021/10/20 11:12:55;;;;;;;21.58;16.05;;;;;;;18.07;51.25;101091.97;5026753;28;20029;-63